sensor_id;sensor_type;location;lat;lon;timestamp;P1;durP1;ratioP1;P2;durP2;ratioP2
65567;SDS011;52211;50.154;8.682;2023-03-01T00:01:59;11.37;;;8.27;;
65567;SDS011;52211;50.154;8.682;2023-03-01T00:04:26;8.60;;;7.70;;
65567;SDS011;52211;50.154;8.682;2023-03-01T00:06:57;9.70;;;8.30;;
65567;SDS011;52211;50.154;8.682;2023-03-01T00:09:26;9.07;;;8.13;;
65567;SDS011;52211;50.154;8.682;2023-03-01T00:11:57;9.60;;;8.00;;
65567;SDS011;52211;50.154;8.682;2023-03-01T00:14:26;9.00;;;8.10;;
65567;SDS011;52211;50.154;8.682;2023-03-01T00:16:56;9.00;;;7.97;;
65567;SDS011;52211;50.154;8.682;2023-03-01T00:19:22;10.37;;;7.87;;
65567;SDS011;52211;50.154;8.682;2023-03-01T00:21:54;8.90;;;7.70;;
65567;SDS011;52211;50.154;8.682;2023-03-01T00:24:26;13.07;;;7.93;;
65567;SDS011;52211;50.154;8.682;2023-03-01T00:26:53;9.07;;;8.03;;
65567;SDS011;52211;50.154;8.682;2023-03-01T00:29:24;10.30;;;8.30;;
65567;SDS011;52211;50.154;8.682;2023-03-01T00:31:54;9.77;;;7.83;;
65567;SDS011;52211;50.154;8.682;2023-03-01T00:34:26;11.77;;;8.03;;
65567;SDS011;52211;50.154;8.682;2023-03-01T00:36:55;9.63;;;7.60;;
65567;SDS011;52211;50.154;8.682;2023-03-01T00:39:31;10.20;;;7.53;;
65567;SDS011;52211;50.154;8.682;2023-03-01T00:42:01;11.20;;;8.43;;
65567;SDS011;52211;50.154;8.682;2023-03-01T00:44:28;9.60;;;8.37;;
65567;SDS011;52211;50.154;8.682;2023-03-01T00:46:57;8.87;;;7.97;;
65567;SDS011;52211;50.154;8.682;2023-03-01T00:49:24;11.07;;;8.60;;
65567;SDS011;52211;50.154;8.682;2023-03-01T00:51:55;9.83;;;8.63;;
65567;SDS011;52211;50.154;8.682;2023-03-01T00:54:24;10.43;;;8.90;;
65567;SDS011;52211;50.154;8.682;2023-03-01T00:56:53;10.60;;;9.20;;
65567;SDS011;52211;50.154;8.682;2023-03-01T00:59:20;9.73;;;8.40;;
65567;SDS011;52211;50.154;8.682;2023-03-01T01:01:47;8.93;;;7.60;;
65567;SDS011;52211;50.154;8.682;2023-03-01T01:04:14;9.97;;;8.37;;
65567;SDS011;52211;50.154;8.682;2023-03-01T01:06:42;9.43;;;8.00;;
65567;SDS011;52211;50.154;8.682;2023-03-01T01:09:12;9.70;;;8.70;;
65567;SDS011;52211;50.154;8.682;2023-03-01T01:11:49;10.20;;;8.17;;
65567;SDS011;52211;50.154;8.682;2023-03-01T01:14:22;9.27;;;8.33;;
65567;SDS011;52211;50.154;8.682;2023-03-01T01:16:53;10.93;;;8.47;;
65567;SDS011;52211;50.154;8.682;2023-03-01T01:19:20;10.70;;;9.10;;
65567;SDS011;52211;50.154;8.682;2023-03-01T01:21:50;8.40;;;7.47;;
65567;SDS011;52211;50.154;8.682;2023-03-01T01:24:21;12.30;;;8.20;;
65567;SDS011;52211;50.154;8.682;2023-03-01T01:26:49;12.83;;;8.67;;
65567;SDS011;52211;50.154;8.682;2023-03-01T01:29:18;9.63;;;8.63;;
65567;SDS011;52211;50.154;8.682;2023-03-01T01:31:48;12.27;;;8.60;;
65567;SDS011;52211;50.154;8.682;2023-03-01T01:34:18;12.17;;;8.53;;
65567;SDS011;52211;50.154;8.682;2023-03-01T01:36:50;10.23;;;8.37;;
65567;SDS011;52211;50.154;8.682;2023-03-01T01:39:21;9.77;;;8.77;;
65567;SDS011;52211;50.154;8.682;2023-03-01T01:41:48;10.53;;;8.13;;
65567;SDS011;52211;50.154;8.682;2023-03-01T01:47:06;11.07;;;8.17;;
65567;SDS011;52211;50.154;8.682;2023-03-01T01:49:56;10.00;;;8.97;;
65567;SDS011;52211;50.154;8.682;2023-03-01T01:52:34;10.33;;;8.53;;
65567;SDS011;52211;50.154;8.682;2023-03-01T01:55:23;10.47;;;8.57;;
65567;SDS011;52211;50.154;8.682;2023-03-01T01:57:54;10.67;;;8.27;;
65567;SDS011;52211;50.154;8.682;2023-03-01T02:00:31;10.27;;;9.17;;
65567;SDS011;52211;50.154;8.682;2023-03-01T02:03:09;9.87;;;8.87;;
65567;SDS011;52211;50.154;8.682;2023-03-01T02:05:49;10.87;;;8.63;;
65567;SDS011;52211;50.154;8.682;2023-03-01T02:08:46;10.50;;;8.80;;
65567;SDS011;52211;50.154;8.682;2023-03-01T02:11:20;10.53;;;8.87;;
65567;SDS011;52211;50.154;8.682;2023-03-01T02:13:48;9.37;;;8.43;;
65567;SDS011;52211;50.154;8.682;2023-03-01T02:16:20;11.03;;;9.00;;
65567;SDS011;52211;50.154;8.682;2023-03-01T02:18:47;11.30;;;9.03;;
65567;SDS011;52211;50.154;8.682;2023-03-01T02:23:53;13.33;;;9.40;;
65567;SDS011;52211;50.154;8.682;2023-03-01T02:26:27;11.60;;;8.87;;
65567;SDS011;52211;50.154;8.682;2023-03-01T02:29:11;12.73;;;8.70;;
65567;SDS011;52211;50.154;8.682;2023-03-01T02:31:38;10.40;;;8.70;;
65567;SDS011;52211;50.154;8.682;2023-03-01T02:34:12;9.63;;;8.57;;
65567;SDS011;52211;50.154;8.682;2023-03-01T02:36:56;13.13;;;9.27;;
65567;SDS011;52211;50.154;8.682;2023-03-01T02:39:32;11.20;;;9.30;;
65567;SDS011;52211;50.154;8.682;2023-03-01T02:42:11;11.57;;;9.00;;
65567;SDS011;52211;50.154;8.682;2023-03-01T02:44:52;13.87;;;9.63;;
65567;SDS011;52211;50.154;8.682;2023-03-01T02:47:24;11.57;;;9.43;;
65567;SDS011;52211;50.154;8.682;2023-03-01T02:49:51;11.33;;;8.73;;
65567;SDS011;52211;50.154;8.682;2023-03-01T02:55:18;12.30;;;9.20;;
65567;SDS011;52211;50.154;8.682;2023-03-01T02:57:47;11.77;;;9.37;;
65567;SDS011;52211;50.154;8.682;2023-03-01T03:00:23;13.00;;;9.57;;
65567;SDS011;52211;50.154;8.682;2023-03-01T03:03:02;12.67;;;9.63;;
65567;SDS011;52211;50.154;8.682;2023-03-01T03:05:34;10.40;;;9.33;;
65567;SDS011;52211;50.154;8.682;2023-03-01T03:08:06;11.47;;;9.67;;
65567;SDS011;52211;50.154;8.682;2023-03-01T03:10:38;10.90;;;9.00;;
65567;SDS011;52211;50.154;8.682;2023-03-01T03:13:10;11.77;;;9.83;;
65567;SDS011;52211;50.154;8.682;2023-03-01T03:15:42;11.57;;;9.57;;
65567;SDS011;52211;50.154;8.682;2023-03-01T03:18:15;10.83;;;9.00;;
65567;SDS011;52211;50.154;8.682;2023-03-01T03:20:45;10.03;;;8.93;;
65567;SDS011;52211;50.154;8.682;2023-03-01T03:23:15;11.73;;;9.80;;
65567;SDS011;52211;50.154;8.682;2023-03-01T03:25:44;11.30;;;10.20;;
65567;SDS011;52211;50.154;8.682;2023-03-01T03:28:15;11.80;;;9.77;;
65567;SDS011;52211;50.154;8.682;2023-03-01T03:30:45;13.97;;;9.37;;
65567;SDS011;52211;50.154;8.682;2023-03-01T03:33:16;13.57;;;10.10;;
65567;SDS011;52211;50.154;8.682;2023-03-01T03:35:48;12.83;;;10.13;;
65567;SDS011;52211;50.154;8.682;2023-03-01T03:38:17;11.37;;;9.37;;
65567;SDS011;52211;50.154;8.682;2023-03-01T03:40:49;12.57;;;9.30;;
65567;SDS011;52211;50.154;8.682;2023-03-01T03:43:28;11.20;;;10.03;;
65567;SDS011;52211;50.154;8.682;2023-03-01T03:45:59;13.10;;;10.33;;
65567;SDS011;52211;50.154;8.682;2023-03-01T03:48:35;12.50;;;9.67;;
65567;SDS011;52211;50.154;8.682;2023-03-01T03:51:05;10.47;;;9.37;;
65567;SDS011;52211;50.154;8.682;2023-03-01T03:53:36;13.97;;;10.20;;
65567;SDS011;52211;50.154;8.682;2023-03-01T03:56:03;13.50;;;10.17;;
65567;SDS011;52211;50.154;8.682;2023-03-01T03:58:34;13.97;;;10.20;;
65567;SDS011;52211;50.154;8.682;2023-03-01T04:01:03;13.13;;;9.50;;
65567;SDS011;52211;50.154;8.682;2023-03-01T04:03:31;13.70;;;10.17;;
65567;SDS011;52211;50.154;8.682;2023-03-01T04:06:03;11.60;;;9.47;;
65567;SDS011;52211;50.154;8.682;2023-03-01T04:08:32;11.83;;;9.67;;
65567;SDS011;52211;50.154;8.682;2023-03-01T04:11:02;11.03;;;9.77;;
65567;SDS011;52211;50.154;8.682;2023-03-01T04:13:52;15.47;;;10.03;;
65567;SDS011;52211;50.154;8.682;2023-03-01T04:16:24;13.87;;;10.50;;
65567;SDS011;52211;50.154;8.682;2023-03-01T04:18:54;12.57;;;9.73;;
65567;SDS011;52211;50.154;8.682;2023-03-01T04:21:25;16.20;;;10.77;;
65567;SDS011;52211;50.154;8.682;2023-03-01T04:23:52;13.27;;;8.97;;
65567;SDS011;52211;50.154;8.682;2023-03-01T04:26:21;17.83;;;10.53;;
65567;SDS011;52211;50.154;8.682;2023-03-01T04:28:53;13.43;;;10.30;;
65567;SDS011;52211;50.154;8.682;2023-03-01T04:31:20;13.57;;;10.13;;
65567;SDS011;52211;50.154;8.682;2023-03-01T04:33:52;13.47;;;10.80;;
65567;SDS011;52211;50.154;8.682;2023-03-01T04:36:22;16.90;;;11.57;;
65567;SDS011;52211;50.154;8.682;2023-03-01T04:38:54;13.37;;;10.77;;
65567;SDS011;52211;50.154;8.682;2023-03-01T04:41:27;16.80;;;11.33;;
65567;SDS011;52211;50.154;8.682;2023-03-01T04:43:54;13.00;;;10.07;;
65567;SDS011;52211;50.154;8.682;2023-03-01T04:46:23;12.53;;;10.37;;
65567;SDS011;52211;50.154;8.682;2023-03-01T04:48:53;13.97;;;10.43;;
65567;SDS011;52211;50.154;8.682;2023-03-01T04:51:22;13.10;;;10.93;;
65567;SDS011;52211;50.154;8.682;2023-03-01T04:53:53;14.63;;;11.03;;
65567;SDS011;52211;50.154;8.682;2023-03-01T04:56:20;12.67;;;10.23;;
65567;SDS011;52211;50.154;8.682;2023-03-01T04:58:49;11.77;;;9.83;;
65567;SDS011;52211;50.154;8.682;2023-03-01T05:01:20;14.10;;;11.17;;
65567;SDS011;52211;50.154;8.682;2023-03-01T05:03:54;14.43;;;10.63;;
65567;SDS011;52211;50.154;8.682;2023-03-01T05:06:29;12.97;;;10.93;;
65567;SDS011;52211;50.154;8.682;2023-03-01T05:09:01;14.50;;;10.23;;
65567;SDS011;52211;50.154;8.682;2023-03-01T05:11:28;15.23;;;10.93;;
65567;SDS011;52211;50.154;8.682;2023-03-01T05:13:59;11.63;;;10.13;;
65567;SDS011;52211;50.154;8.682;2023-03-01T05:16:26;12.27;;;10.27;;
65567;SDS011;52211;50.154;8.682;2023-03-01T05:18:56;19.47;;;11.33;;
65567;SDS011;52211;50.154;8.682;2023-03-01T05:21:25;15.10;;;11.43;;
65567;SDS011;52211;50.154;8.682;2023-03-01T05:23:54;17.53;;;11.20;;
65567;SDS011;52211;50.154;8.682;2023-03-01T05:26:24;13.43;;;10.97;;
65567;SDS011;52211;50.154;8.682;2023-03-01T05:28:55;12.53;;;10.43;;
65567;SDS011;52211;50.154;8.682;2023-03-01T05:31:24;13.60;;;10.07;;
65567;SDS011;52211;50.154;8.682;2023-03-01T05:33:51;13.07;;;11.10;;
65567;SDS011;52211;50.154;8.682;2023-03-01T05:36:20;14.80;;;10.70;;
65567;SDS011;52211;50.154;8.682;2023-03-01T05:38:49;12.47;;;10.50;;
65567;SDS011;52211;50.154;8.682;2023-03-01T05:41:18;14.47;;;10.70;;
65567;SDS011;52211;50.154;8.682;2023-03-01T05:43:45;13.47;;;10.93;;
65567;SDS011;52211;50.154;8.682;2023-03-01T05:46:12;12.63;;;10.20;;
65567;SDS011;52211;50.154;8.682;2023-03-01T05:48:44;16.00;;;10.60;;
65567;SDS011;52211;50.154;8.682;2023-03-01T05:51:15;14.20;;;10.20;;
65567;SDS011;52211;50.154;8.682;2023-03-01T05:53:42;13.20;;;10.47;;
65567;SDS011;52211;50.154;8.682;2023-03-01T05:56:16;13.73;;;11.03;;
65567;SDS011;52211;50.154;8.682;2023-03-01T05:58:43;13.07;;;10.67;;
65567;SDS011;52211;50.154;8.682;2023-03-01T06:01:12;16.30;;;11.03;;
65567;SDS011;52211;50.154;8.682;2023-03-01T06:03:42;12.40;;;10.50;;
65567;SDS011;52211;50.154;8.682;2023-03-01T06:06:09;15.40;;;10.87;;
65567;SDS011;52211;50.154;8.682;2023-03-01T06:08:36;14.53;;;10.90;;
65567;SDS011;52211;50.154;8.682;2023-03-01T06:11:05;12.77;;;10.73;;
65567;SDS011;52211;50.154;8.682;2023-03-01T06:13:33;14.60;;;10.50;;
65567;SDS011;52211;50.154;8.682;2023-03-01T06:16:05;13.53;;;9.83;;
65567;SDS011;52211;50.154;8.682;2023-03-01T06:18:35;14.00;;;10.10;;
65567;SDS011;52211;50.154;8.682;2023-03-01T06:21:04;13.17;;;10.83;;
65567;SDS011;52211;50.154;8.682;2023-03-01T06:23:33;13.90;;;9.87;;
65567;SDS011;52211;50.154;8.682;2023-03-01T06:26:04;14.90;;;10.23;;
65567;SDS011;52211;50.154;8.682;2023-03-01T06:28:34;12.77;;;10.37;;
65567;SDS011;52211;50.154;8.682;2023-03-01T06:31:06;14.27;;;10.87;;
65567;SDS011;52211;50.154;8.682;2023-03-01T06:33:35;14.80;;;9.87;;
65567;SDS011;52211;50.154;8.682;2023-03-01T06:36:07;17.30;;;10.73;;
65567;SDS011;52211;50.154;8.682;2023-03-01T06:38:36;15.93;;;11.00;;
65567;SDS011;52211;50.154;8.682;2023-03-01T06:41:03;12.03;;;10.20;;
65567;SDS011;52211;50.154;8.682;2023-03-01T06:43:35;16.50;;;11.30;;
65567;SDS011;52211;50.154;8.682;2023-03-01T06:46:05;13.33;;;10.07;;
65567;SDS011;52211;50.154;8.682;2023-03-01T06:48:38;12.47;;;9.90;;
65567;SDS011;52211;50.154;8.682;2023-03-01T06:51:07;14.63;;;10.70;;
65567;SDS011;52211;50.154;8.682;2023-03-01T06:53:34;14.47;;;11.27;;
65567;SDS011;52211;50.154;8.682;2023-03-01T06:56:03;14.70;;;9.87;;
65567;SDS011;52211;50.154;8.682;2023-03-01T06:58:37;17.07;;;11.00;;
65567;SDS011;52211;50.154;8.682;2023-03-01T07:01:07;12.83;;;10.83;;
65567;SDS011;52211;50.154;8.682;2023-03-01T07:03:37;12.17;;;10.13;;
65567;SDS011;52211;50.154;8.682;2023-03-01T07:06:06;11.40;;;9.73;;
65567;SDS011;52211;50.154;8.682;2023-03-01T07:08:41;16.70;;;10.77;;
65567;SDS011;52211;50.154;8.682;2023-03-01T07:11:12;15.60;;;10.70;;
65567;SDS011;52211;50.154;8.682;2023-03-01T07:13:44;13.80;;;10.37;;
65567;SDS011;52211;50.154;8.682;2023-03-01T07:16:13;15.03;;;11.90;;
65567;SDS011;52211;50.154;8.682;2023-03-01T07:18:41;14.17;;;10.37;;
65567;SDS011;52211;50.154;8.682;2023-03-01T07:21:11;14.40;;;10.40;;
65567;SDS011;52211;50.154;8.682;2023-03-01T07:23:42;14.13;;;10.73;;
65567;SDS011;52211;50.154;8.682;2023-03-01T07:26:09;13.73;;;10.47;;
65567;SDS011;52211;50.154;8.682;2023-03-01T07:28:36;15.10;;;9.93;;
65567;SDS011;52211;50.154;8.682;2023-03-01T07:31:05;13.90;;;10.57;;
65567;SDS011;52211;50.154;8.682;2023-03-01T07:33:40;16.30;;;11.67;;
65567;SDS011;52211;50.154;8.682;2023-03-01T07:36:11;17.33;;;11.43;;
65567;SDS011;52211;50.154;8.682;2023-03-01T07:38:40;14.37;;;10.90;;
65567;SDS011;52211;50.154;8.682;2023-03-01T07:41:07;15.07;;;11.30;;
65567;SDS011;52211;50.154;8.682;2023-03-01T07:43:39;13.57;;;11.37;;
65567;SDS011;52211;50.154;8.682;2023-03-01T07:46:08;15.17;;;11.67;;
65567;SDS011;52211;50.154;8.682;2023-03-01T07:48:36;13.73;;;11.37;;
65567;SDS011;52211;50.154;8.682;2023-03-01T07:51:06;18.47;;;12.07;;
65567;SDS011;52211;50.154;8.682;2023-03-01T07:53:36;12.40;;;10.20;;
65567;SDS011;52211;50.154;8.682;2023-03-01T07:56:11;14.50;;;11.20;;
65567;SDS011;52211;50.154;8.682;2023-03-01T07:58:41;14.47;;;11.67;;
65567;SDS011;52211;50.154;8.682;2023-03-01T08:01:13;12.93;;;10.00;;
65567;SDS011;52211;50.154;8.682;2023-03-01T08:03:45;14.07;;;11.30;;
65567;SDS011;52211;50.154;8.682;2023-03-01T08:06:16;17.13;;;11.07;;
65567;SDS011;52211;50.154;8.682;2023-03-01T08:08:44;16.10;;;11.87;;
65567;SDS011;52211;50.154;8.682;2023-03-01T08:11:14;14.57;;;11.50;;
65567;SDS011;52211;50.154;8.682;2023-03-01T08:13:42;17.03;;;11.93;;
65567;SDS011;52211;50.154;8.682;2023-03-01T08:16:11;17.47;;;11.93;;
65567;SDS011;52211;50.154;8.682;2023-03-01T08:18:40;17.73;;;12.60;;
65567;SDS011;52211;50.154;8.682;2023-03-01T08:21:12;13.50;;;10.93;;
65567;SDS011;52211;50.154;8.682;2023-03-01T08:23:42;15.03;;;12.20;;
65567;SDS011;52211;50.154;8.682;2023-03-01T08:26:20;18.20;;;11.37;;
65567;SDS011;52211;50.154;8.682;2023-03-01T08:28:49;19.20;;;11.83;;
65567;SDS011;52211;50.154;8.682;2023-03-01T08:33:58;14.43;;;11.40;;
65567;SDS011;52211;50.154;8.682;2023-03-01T08:36:35;15.10;;;11.17;;
65567;SDS011;52211;50.154;8.682;2023-03-01T08:39:07;16.83;;;12.33;;
65567;SDS011;52211;50.154;8.682;2023-03-01T08:41:37;13.40;;;11.17;;
65567;SDS011;52211;50.154;8.682;2023-03-01T08:44:10;16.03;;;11.50;;
65567;SDS011;52211;50.154;8.682;2023-03-01T08:46:40;15.97;;;11.73;;
65567;SDS011;52211;50.154;8.682;2023-03-01T08:49:09;13.70;;;11.63;;
65567;SDS011;52211;50.154;8.682;2023-03-01T08:51:44;14.47;;;10.93;;
65567;SDS011;52211;50.154;8.682;2023-03-01T08:54:17;14.27;;;11.23;;
65567;SDS011;52211;50.154;8.682;2023-03-01T08:56:47;17.97;;;11.47;;
65567;SDS011;52211;50.154;8.682;2023-03-01T08:59:20;12.37;;;10.87;;
65567;SDS011;52211;50.154;8.682;2023-03-01T09:01:51;13.97;;;10.40;;
65567;SDS011;52211;50.154;8.682;2023-03-01T09:04:25;14.63;;;10.93;;
65567;SDS011;52211;50.154;8.682;2023-03-01T09:06:55;14.77;;;10.63;;
65567;SDS011;52211;50.154;8.682;2023-03-01T09:09:24;13.77;;;10.80;;
65567;SDS011;52211;50.154;8.682;2023-03-01T09:11:55;13.30;;;10.13;;
65567;SDS011;52211;50.154;8.682;2023-03-01T09:14:26;13.57;;;10.77;;
65567;SDS011;52211;50.154;8.682;2023-03-01T09:16:54;13.20;;;10.80;;
65567;SDS011;52211;50.154;8.682;2023-03-01T09:19:23;14.73;;;10.67;;
65567;SDS011;52211;50.154;8.682;2023-03-01T09:21:57;15.73;;;12.57;;
65567;SDS011;52211;50.154;8.682;2023-03-01T09:24:26;19.47;;;11.20;;
65567;SDS011;52211;50.154;8.682;2023-03-01T09:26:54;15.80;;;11.73;;
65567;SDS011;52211;50.154;8.682;2023-03-01T09:29:24;17.60;;;12.10;;
65567;SDS011;52211;50.154;8.682;2023-03-01T09:31:52;15.23;;;10.67;;
65567;SDS011;52211;50.154;8.682;2023-03-01T09:34:22;15.60;;;11.80;;
65567;SDS011;52211;50.154;8.682;2023-03-01T09:36:50;18.07;;;12.80;;
65567;SDS011;52211;50.154;8.682;2023-03-01T09:39:17;15.93;;;10.53;;
65567;SDS011;52211;50.154;8.682;2023-03-01T09:44:36;15.77;;;11.10;;
65567;SDS011;52211;50.154;8.682;2023-03-01T09:47:21;15.73;;;11.40;;
65567;SDS011;52211;50.154;8.682;2023-03-01T09:49:58;13.73;;;10.63;;
65567;SDS011;52211;50.154;8.682;2023-03-01T10:01:36;13.70;;;10.57;;
65567;SDS011;52211;50.154;8.682;2023-03-01T10:10:08;15.47;;;11.17;;
65567;SDS011;52211;50.154;8.682;2023-03-01T10:12:52;14.03;;;10.90;;
65567;SDS011;52211;50.154;8.682;2023-03-01T10:15:28;15.93;;;10.63;;
65567;SDS011;52211;50.154;8.682;2023-03-01T10:18:06;12.67;;;10.43;;
65567;SDS011;52211;50.154;8.682;2023-03-01T10:20:57;15.43;;;11.27;;
65567;SDS011;52211;50.154;8.682;2023-03-01T10:23:31;14.67;;;10.50;;
65567;SDS011;52211;50.154;8.682;2023-03-01T10:26:23;12.83;;;10.43;;
65567;SDS011;52211;50.154;8.682;2023-03-01T10:29:10;14.17;;;10.50;;
65567;SDS011;52211;50.154;8.682;2023-03-01T10:31:46;13.37;;;10.63;;
65567;SDS011;52211;50.154;8.682;2023-03-01T10:34:18;13.17;;;10.77;;
65567;SDS011;52211;50.154;8.682;2023-03-01T10:37:16;13.53;;;10.67;;
65567;SDS011;52211;50.154;8.682;2023-03-01T10:39:56;16.97;;;10.77;;
65567;SDS011;52211;50.154;8.682;2023-03-01T10:42:38;12.67;;;10.20;;
65567;SDS011;52211;50.154;8.682;2023-03-01T10:50:46;14.90;;;10.80;;
65567;SDS011;52211;50.154;8.682;2023-03-01T10:56:16;11.83;;;10.10;;
65567;SDS011;52211;50.154;8.682;2023-03-01T11:01:30;11.57;;;9.10;;
65567;SDS011;52211;50.154;8.682;2023-03-01T11:06:37;12.40;;;8.80;;
65567;SDS011;52211;50.154;8.682;2023-03-01T11:11:57;10.30;;;8.00;;
65567;SDS011;52211;50.154;8.682;2023-03-01T11:14:27;9.53;;;7.60;;
65567;SDS011;52211;50.154;8.682;2023-03-01T11:22:45;8.63;;;7.70;;
65567;SDS011;52211;50.154;8.682;2023-03-01T11:25:26;9.70;;;8.20;;
65567;SDS011;52211;50.154;8.682;2023-03-01T11:28:10;9.90;;;8.40;;
65567;SDS011;52211;50.154;8.682;2023-03-01T11:30:57;10.93;;;7.73;;
65567;SDS011;52211;50.154;8.682;2023-03-01T11:33:37;8.17;;;6.93;;
65567;SDS011;52211;50.154;8.682;2023-03-01T11:36:24;7.73;;;7.00;;
65567;SDS011;52211;50.154;8.682;2023-03-01T11:42:06;7.30;;;6.57;;
65567;SDS011;52211;50.154;8.682;2023-03-01T11:44:47;6.70;;;6.00;;
65567;SDS011;52211;50.154;8.682;2023-03-01T11:47:38;9.03;;;7.00;;
65567;SDS011;52211;50.154;8.682;2023-03-01T11:50:42;7.23;;;6.33;;
65567;SDS011;52211;50.154;8.682;2023-03-01T12:27:01;6.60;;;5.90;;
65567;SDS011;52211;50.154;8.682;2023-03-01T12:39:58;7.20;;;5.63;;
65567;SDS011;52211;50.154;8.682;2023-03-01T12:42:48;6.33;;;5.73;;
65567;SDS011;52211;50.154;8.682;2023-03-01T12:48:43;6.27;;;5.63;;
65567;SDS011;52211;50.154;8.682;2023-03-01T12:51:35;5.37;;;4.87;;
65567;SDS011;52211;50.154;8.682;2023-03-01T12:54:21;5.90;;;5.30;;
65567;SDS011;52211;50.154;8.682;2023-03-01T12:57:06;6.90;;;5.23;;
65567;SDS011;52211;50.154;8.682;2023-03-01T13:02:45;5.87;;;5.37;;
65567;SDS011;52211;50.154;8.682;2023-03-01T13:06:14;6.47;;;5.07;;
65567;SDS011;52211;50.154;8.682;2023-03-01T13:12:41;6.40;;;5.40;;
65567;SDS011;52211;50.154;8.682;2023-03-01T13:15:24;5.80;;;5.20;;
65567;SDS011;52211;50.154;8.682;2023-03-01T13:20:48;5.83;;;4.90;;
65567;SDS011;52211;50.154;8.682;2023-03-01T13:33:42;6.23;;;5.17;;
65567;SDS011;52211;50.154;8.682;2023-03-01T13:38:58;5.70;;;5.10;;
65567;SDS011;52211;50.154;8.682;2023-03-01T13:55:41;7.27;;;5.50;;
65567;SDS011;52211;50.154;8.682;2023-03-01T13:58:15;6.33;;;5.03;;
65567;SDS011;52211;50.154;8.682;2023-03-01T14:01:01;4.93;;;4.53;;
65567;SDS011;52211;50.154;8.682;2023-03-01T14:03:32;5.10;;;4.60;;
65567;SDS011;52211;50.154;8.682;2023-03-01T14:06:12;5.93;;;5.33;;
65567;SDS011;52211;50.154;8.682;2023-03-01T14:08:52;9.57;;;5.57;;
65567;SDS011;52211;50.154;8.682;2023-03-01T14:17:24;5.20;;;4.70;;
65567;SDS011;52211;50.154;8.682;2023-03-01T14:20:32;5.90;;;5.10;;
65567;SDS011;52211;50.154;8.682;2023-03-01T14:23:10;5.60;;;4.87;;
65567;SDS011;52211;50.154;8.682;2023-03-01T14:25:54;6.13;;;5.27;;
65567;SDS011;52211;50.154;8.682;2023-03-01T14:28:25;6.47;;;4.80;;
65567;SDS011;52211;50.154;8.682;2023-03-01T14:34:19;5.27;;;4.77;;
65567;SDS011;52211;50.154;8.682;2023-03-01T14:36:52;6.93;;;5.10;;
65567;SDS011;52211;50.154;8.682;2023-03-01T14:39:23;7.10;;;5.80;;
65567;SDS011;52211;50.154;8.682;2023-03-01T14:41:53;5.50;;;4.90;;
65567;SDS011;52211;50.154;8.682;2023-03-01T14:44:30;6.03;;;5.17;;
65567;SDS011;52211;50.154;8.682;2023-03-01T14:47:02;5.87;;;5.23;;
65567;SDS011;52211;50.154;8.682;2023-03-01T14:49:34;6.33;;;5.73;;
65567;SDS011;52211;50.154;8.682;2023-03-01T14:52:04;7.10;;;5.43;;
65567;SDS011;52211;50.154;8.682;2023-03-01T14:54:50;6.03;;;5.43;;
65567;SDS011;52211;50.154;8.682;2023-03-01T14:57:21;6.83;;;5.27;;
65567;SDS011;52211;50.154;8.682;2023-03-01T14:59:52;6.33;;;5.60;;
65567;SDS011;52211;50.154;8.682;2023-03-01T15:02:26;5.57;;;5.03;;
65567;SDS011;52211;50.154;8.682;2023-03-01T15:04:58;6.17;;;5.57;;
65567;SDS011;52211;50.154;8.682;2023-03-01T15:07:37;6.50;;;5.73;;
65567;SDS011;52211;50.154;8.682;2023-03-01T15:10:14;6.60;;;5.73;;
65567;SDS011;52211;50.154;8.682;2023-03-01T15:13:22;5.83;;;5.20;;
65567;SDS011;52211;50.154;8.682;2023-03-01T15:16:00;6.70;;;5.07;;
65567;SDS011;52211;50.154;8.682;2023-03-01T15:18:47;6.10;;;5.43;;
65567;SDS011;52211;50.154;8.682;2023-03-01T15:21:22;7.07;;;6.37;;
65567;SDS011;52211;50.154;8.682;2023-03-01T15:23:57;7.73;;;5.77;;
65567;SDS011;52211;50.154;8.682;2023-03-01T15:26:37;6.47;;;5.47;;
65567;SDS011;52211;50.154;8.682;2023-03-01T15:29:16;7.20;;;5.83;;
65567;SDS011;52211;50.154;8.682;2023-03-01T15:31:59;7.93;;;5.60;;
65567;SDS011;52211;50.154;8.682;2023-03-01T15:34:33;5.93;;;5.20;;
65567;SDS011;52211;50.154;8.682;2023-03-01T15:37:32;7.00;;;4.97;;
65567;SDS011;52211;50.154;8.682;2023-03-01T15:43:04;7.07;;;5.60;;
65567;SDS011;52211;50.154;8.682;2023-03-01T15:45:57;6.00;;;5.40;;
65567;SDS011;52211;50.154;8.682;2023-03-01T15:48:29;6.67;;;5.80;;
65567;SDS011;52211;50.154;8.682;2023-03-01T15:51:01;6.00;;;5.37;;
65567;SDS011;52211;50.154;8.682;2023-03-01T15:53:28;7.23;;;5.97;;
65567;SDS011;52211;50.154;8.682;2023-03-01T15:56:01;6.30;;;5.60;;
65567;SDS011;52211;50.154;8.682;2023-03-01T15:58:28;7.67;;;5.63;;
65567;SDS011;52211;50.154;8.682;2023-03-01T16:00:55;7.30;;;5.97;;
65567;SDS011;52211;50.154;8.682;2023-03-01T16:03:29;12.63;;;6.03;;
65567;SDS011;52211;50.154;8.682;2023-03-01T16:06:01;7.43;;;5.87;;
65567;SDS011;52211;50.154;8.682;2023-03-01T16:08:29;6.70;;;5.10;;
65567;SDS011;52211;50.154;8.682;2023-03-01T16:10:56;7.07;;;5.57;;
65567;SDS011;52211;50.154;8.682;2023-03-01T16:13:23;8.13;;;5.90;;
65567;SDS011;52211;50.154;8.682;2023-03-01T16:15:56;8.93;;;6.20;;
65567;SDS011;52211;50.154;8.682;2023-03-01T16:18:26;6.07;;;4.90;;
65567;SDS011;52211;50.154;8.682;2023-03-01T16:20:56;7.50;;;6.43;;
65567;SDS011;52211;50.154;8.682;2023-03-01T16:23:25;7.80;;;5.87;;
65567;SDS011;52211;50.154;8.682;2023-03-01T16:25:58;8.17;;;6.17;;
65567;SDS011;52211;50.154;8.682;2023-03-01T16:28:26;9.57;;;6.13;;
65567;SDS011;52211;50.154;8.682;2023-03-01T16:30:55;7.17;;;5.60;;
65567;SDS011;52211;50.154;8.682;2023-03-01T16:33:22;8.03;;;6.47;;
65567;SDS011;52211;50.154;8.682;2023-03-01T16:35:58;7.53;;;6.40;;
65567;SDS011;52211;50.154;8.682;2023-03-01T16:38:30;10.57;;;6.67;;
65567;SDS011;52211;50.154;8.682;2023-03-01T16:40:58;8.57;;;7.00;;
65567;SDS011;52211;50.154;8.682;2023-03-01T16:43:25;6.93;;;6.20;;
65567;SDS011;52211;50.154;8.682;2023-03-01T16:45:54;7.03;;;6.00;;
65567;SDS011;52211;50.154;8.682;2023-03-01T16:48:22;6.90;;;5.87;;
65567;SDS011;52211;50.154;8.682;2023-03-01T16:50:58;8.53;;;6.73;;
65567;SDS011;52211;50.154;8.682;2023-03-01T16:53:30;9.87;;;7.20;;
65567;SDS011;52211;50.154;8.682;2023-03-01T16:55:59;7.50;;;6.13;;
65567;SDS011;52211;50.154;8.682;2023-03-01T16:58:27;7.97;;;6.73;;
65567;SDS011;52211;50.154;8.682;2023-03-01T17:01:03;8.40;;;6.73;;
65567;SDS011;52211;50.154;8.682;2023-03-01T17:03:42;7.33;;;6.53;;
65567;SDS011;52211;50.154;8.682;2023-03-01T17:06:13;7.77;;;6.63;;
65567;SDS011;52211;50.154;8.682;2023-03-01T17:08:44;8.30;;;6.90;;
65567;SDS011;52211;50.154;8.682;2023-03-01T17:11:12;8.13;;;7.27;;
65567;SDS011;52211;50.154;8.682;2023-03-01T17:13:50;9.63;;;6.23;;
65567;SDS011;52211;50.154;8.682;2023-03-01T17:16:21;9.57;;;6.83;;
65567;SDS011;52211;50.154;8.682;2023-03-01T17:18:49;10.60;;;7.23;;
65567;SDS011;52211;50.154;8.682;2023-03-01T17:21:16;8.80;;;6.87;;
65567;SDS011;52211;50.154;8.682;2023-03-01T17:23:46;10.13;;;7.30;;
65567;SDS011;52211;50.154;8.682;2023-03-01T17:26:17;8.47;;;7.07;;
65567;SDS011;52211;50.154;8.682;2023-03-01T17:28:47;7.90;;;7.10;;
65567;SDS011;52211;50.154;8.682;2023-03-01T17:31:17;9.37;;;7.43;;
65567;SDS011;52211;50.154;8.682;2023-03-01T17:33:47;9.67;;;7.80;;
65567;SDS011;52211;50.154;8.682;2023-03-01T17:36:15;8.77;;;7.27;;
65567;SDS011;52211;50.154;8.682;2023-03-01T17:38:44;9.27;;;7.27;;